MiSS Karli — WDF5923 — position and weather

sailwx.info

Track history (hours):
 
Tides and Currents Weather Stations Pressure Air Temp Water Temp Dewpoint Dewpoint Depression Visibility Wind Speed Wind Dir Waves Ship Positions

MiSS Karli

Owner: Crosby Marine Transportation LLC, Golden Meadow, LA. More information available from US FCC via Universal Licensing System and Coast Guard Vessel Documentation Center.

Last reported at 2017-Dec-11 14:32 UTC. Time now 2017-Dec-12 02:47 UTC.
Position N 29°46' W 095°06'.

Length 20 m; draft 8.5 m.

Type: Towing. MMSI: 367468730.

Date/timePositionNaut miles runAvg speedWind from/ knotsBaromVisibWave heightAir tempDewpointWater temp
2017-Dec-11 14:32N 29°46' W 095°06'0 3.4
2017-Dec-11 14:27N 29°45' W 095°06'2 1.3
2017-Dec-11 12:49N 29°47' W 095°05'0 0.0
2017-Dec-11 09:29N 29°47' W 095°05'0 0.0
2017-Dec-11 08:58N 29°47' W 095°05'0 0.0
2017-Dec-11 07:35N 29°47' W 095°05'0 1.3
2017-Dec-11 07:22N 29°47' W 095°04'1 3.8
2017-Dec-11 07:00N 29°46' W 095°05'2 4.7
2017-Dec-11 06:30N 29°44' W 095°03'3 5.5
2017-Dec-11 06:00N 29°42' W 095°01'3 6.0
2017-Dec-11 05:30N 29°40' W 094°58'3 6.5
2017-Dec-11 05:00N 29°37' W 094°57'3 6.4
2017-Dec-11 04:30N 29°34' W 094°55'3 6.5
2017-Dec-11 04:00N 29°32' W 094°53'3 6.7
2017-Dec-11 03:30N 29°29' W 094°51'57 4.7
2017-Dec-10 15:23N 29°55' W 093°53'3 6.6
2017-Dec-10 15:00N 29°57' W 093°52'59 1.6
2017-Dec-09 00:50N 29°32' W 094°54'3 6.5
2017-Dec-09 00:20N 29°35' W 094°56'2 6.7
2017-Dec-09 00:01N 29°37' W 094°57'3 6.8
2017-Dec-08 23:30N 29°40' W 094°59'4 7.1
2017-Dec-08 22:59N 29°43' W 095°01'  
2017-Dec-03 05:08N 29°47' W 095°04'0 0.0
2017-Dec-03 04:26N 29°47' W 095°04'  
Track history (hours):
 
Tides and Currents Weather Stations Pressure Air Temp Water Temp Dewpoint Dewpoint Depression Visibility Wind Speed Wind Dir Waves Ship Positions

MiSS Karli

Owner: Crosby Marine Transportation LLC, Golden Meadow, LA. More information available from US FCC via Universal Licensing System and Coast Guard Vessel Documentation Center.

Last reported at 2017-Dec-11 14:32 UTC. Time now 2017-Dec-12 02:47 UTC.
Position N 29°46' W 095°06'.

Length 20 m; draft 8.5 m.

Type: Towing. MMSI: 367468730.

Date/timePositionNaut miles runAvg speedWind from/ knotsBaromVisibWave heightAir tempDewpointWater temp
2017-Dec-11 14:32N 29°46' W 095°06'0 3.4
2017-Dec-11 14:27N 29°45' W 095°06'2 1.3
2017-Dec-11 12:49N 29°47' W 095°05'0 0.0
2017-Dec-11 09:29N 29°47' W 095°05'0 0.0
2017-Dec-11 08:58N 29°47' W 095°05'0 0.0
2017-Dec-11 07:35N 29°47' W 095°05'0 1.3
2017-Dec-11 07:22N 29°47' W 095°04'1 3.8
2017-Dec-11 07:00N 29°46' W 095°05'2 4.7
2017-Dec-11 06:30N 29°44' W 095°03'3 5.5
2017-Dec-11 06:00N 29°42' W 095°01'3 6.0
2017-Dec-11 05:30N 29°40' W 094°58'3 6.5
2017-Dec-11 05:00N 29°37' W 094°57'3 6.4
2017-Dec-11 04:30N 29°34' W 094°55'3 6.5
2017-Dec-11 04:00N 29°32' W 094°53'3 6.7
2017-Dec-11 03:30N 29°29' W 094°51'57 4.7
2017-Dec-10 15:23N 29°55' W 093°53'3 6.6
2017-Dec-10 15:00N 29°57' W 093°52'59 1.6
2017-Dec-09 00:50N 29°32' W 094°54'3 6.5
2017-Dec-09 00:20N 29°35' W 094°56'2 6.7
2017-Dec-09 00:01N 29°37' W 094°57'3 6.8
2017-Dec-08 23:30N 29°40' W 094°59'4 7.1
2017-Dec-08 22:59N 29°43' W 095°01'  
2017-Dec-03 05:08N 29°47' W 095°04'0 0.0
2017-Dec-03 04:26N 29°47' W 095°04'  

Dump ship's entire track history